createdAt,value
2023-04-27T00:00:53.279Z,549.00
2023-04-27T00:01:53.367Z,549.00
2023-04-27T00:02:53.607Z,550.00
2023-04-27T00:03:53.595Z,550.00
2023-04-27T00:04:53.901Z,551.00
2023-04-27T00:05:53.705Z,551.00
2023-04-27T00:06:53.638Z,551.00
2023-04-27T00:07:53.716Z,546.00
2023-04-27T00:08:53.776Z,546.00
2023-04-27T00:09:53.827Z,547.00
2023-04-27T00:10:53.893Z,546.00
2023-04-27T00:11:53.952Z,541.00
2023-04-27T00:12:54.002Z,544.00
2023-04-27T00:13:54.063Z,544.00
2023-04-27T00:14:54.133Z,542.00
2023-04-27T00:15:54.250Z,543.00
2023-04-27T00:16:54.238Z,548.00
2023-04-27T00:17:54.350Z,548.00
2023-04-27T00:18:54.376Z,548.00
2023-04-27T00:19:54.430Z,546.00
2023-04-27T00:20:54.492Z,547.00
2023-04-27T00:21:54.548Z,547.00
2023-04-27T00:22:54.621Z,546.00
2023-04-27T00:23:54.698Z,545.00
2023-04-27T00:24:54.747Z,542.00
2023-04-27T00:25:54.798Z,544.00
2023-04-27T00:26:54.859Z,543.00
2023-04-27T00:27:54.929Z,542.00
2023-04-27T00:28:54.995Z,541.00
2023-04-27T00:29:55.070Z,539.00
2023-04-27T00:30:55.115Z,539.00
2023-04-27T00:31:55.231Z,538.00
2023-04-27T00:32:55.179Z,538.00
2023-04-27T00:33:55.167Z,538.00
2023-04-27T00:34:55.155Z,540.00
2023-04-27T00:35:55.149Z,541.00
2023-04-27T00:36:55.149Z,543.00
2023-04-27T00:37:55.123Z,540.00
2023-04-27T00:38:55.145Z,537.00
2023-04-27T00:39:55.119Z,537.00
2023-04-27T00:40:55.102Z,538.00
2023-04-27T00:41:55.153Z,540.00
2023-04-27T00:42:55.233Z,539.00
2023-04-27T00:43:55.295Z,539.00
2023-04-27T00:44:55.344Z,538.00
2023-04-27T00:45:55.457Z,538.00
2023-04-27T00:46:55.440Z,539.00
2023-04-27T00:47:55.499Z,539.00
2023-04-27T00:48:55.512Z,540.00
2023-04-27T00:49:55.573Z,541.00
2023-04-27T00:50:55.630Z,541.00
2023-04-27T00:51:55.655Z,543.00
2023-04-27T00:52:55.716Z,544.00
2023-04-27T00:53:55.769Z,546.00
2023-04-27T00:54:55.838Z,542.00
2023-04-27T00:55:55.872Z,540.00
2023-04-27T00:56:55.910Z,541.00
2023-04-27T00:57:55.981Z,541.00
2023-04-27T00:58:56.038Z,541.00
2023-04-27T00:59:56.077Z,542.00
2023-04-27T01:00:56.150Z,542.00
2023-04-27T01:01:56.214Z,542.00
2023-04-27T01:02:56.395Z,542.00
2023-04-27T01:03:56.465Z,540.00
2023-04-27T01:04:56.392Z,539.00
2023-04-27T01:05:56.421Z,538.00
2023-04-27T01:06:56.486Z,535.00
2023-04-27T01:07:56.534Z,534.00
2023-04-27T01:08:56.538Z,536.00
2023-04-27T01:09:56.567Z,536.00
2023-04-27T01:10:56.607Z,533.00
2023-04-27T01:11:56.568Z,534.00
2023-04-27T01:12:56.544Z,534.00
2023-04-27T01:13:56.541Z,535.00
2023-04-27T01:14:56.539Z,534.00
2023-04-27T01:15:56.514Z,535.00
2023-04-27T01:16:56.554Z,534.00
2023-04-27T01:17:56.517Z,535.00
2023-04-27T01:18:56.476Z,534.00
2023-04-27T01:19:56.479Z,535.00
2023-04-27T01:20:56.460Z,536.00
2023-04-27T01:21:56.452Z,536.00
2023-04-27T01:22:56.429Z,539.00
2023-04-27T01:23:56.452Z,535.00
2023-04-27T01:24:56.533Z,533.00
2023-04-27T01:25:56.492Z,530.00
2023-04-27T01:26:56.504Z,528.00
2023-04-27T01:27:56.484Z,528.00
2023-04-27T01:28:56.493Z,526.00
2023-04-27T01:29:56.481Z,526.00
2023-04-27T01:30:56.524Z,526.00
2023-04-27T01:31:56.502Z,531.00
2023-04-27T01:32:56.551Z,533.00
2023-04-27T01:33:56.565Z,535.00
2023-04-27T01:34:56.586Z,534.00
2023-04-27T01:35:56.589Z,531.00
2023-04-27T01:36:56.606Z,529.00
2023-04-27T01:37:56.628Z,528.00
2023-04-27T01:38:56.607Z,528.00
2023-04-27T01:39:56.620Z,527.00
2023-04-27T01:40:56.650Z,529.00
2023-04-27T01:41:58.333Z,527.00
2023-04-27T01:42:56.636Z,529.00
2023-04-27T01:43:56.635Z,526.00
2023-04-27T01:44:56.665Z,524.00
2023-04-27T01:45:56.712Z,524.00
2023-04-27T01:46:56.731Z,524.00
2023-04-27T01:47:56.766Z,523.00
2023-04-27T01:48:56.780Z,523.00
2023-04-27T01:49:56.806Z,522.00
2023-04-27T01:50:56.847Z,524.00
2023-04-27T01:51:56.869Z,529.00
2023-04-27T01:52:56.916Z,526.00
2023-04-27T01:53:56.996Z,529.00
2023-04-27T01:54:57.019Z,528.00
2023-04-27T01:55:57.051Z,525.00
2023-04-27T01:56:57.104Z,528.00
2023-04-27T01:57:57.134Z,529.00
2023-04-27T01:58:57.161Z,530.00
2023-04-27T01:59:57.212Z,527.00
2023-04-27T02:00:57.247Z,528.00
2023-04-27T02:01:57.300Z,529.00
2023-04-27T02:02:57.492Z,528.00
2023-04-27T02:03:57.458Z,524.00
2023-04-27T02:04:57.377Z,524.00
2023-04-27T02:05:57.377Z,524.00
2023-04-27T02:06:57.354Z,524.00
2023-04-27T02:07:57.345Z,523.00
2023-04-27T02:08:57.342Z,522.00
2023-04-27T02:09:57.335Z,521.00
2023-04-27T02:10:57.331Z,521.00
2023-04-27T02:11:57.318Z,521.00
2023-04-27T02:12:57.323Z,521.00
2023-04-27T02:13:57.308Z,518.00
2023-04-27T02:14:57.329Z,517.00
2023-04-27T02:15:57.374Z,518.00
2023-04-27T02:16:57.377Z,518.00
2023-04-27T02:17:57.430Z,520.00
2023-04-27T02:18:57.443Z,520.00
2023-04-27T02:19:57.463Z,520.00
2023-04-27T02:20:57.505Z,518.00
2023-04-27T02:21:57.511Z,516.00
2023-04-27T02:22:57.547Z,515.00
2023-04-27T02:23:57.563Z,516.00
2023-04-27T02:24:57.579Z,517.00
2023-04-27T02:25:57.628Z,517.00
2023-04-27T02:26:57.632Z,519.00
2023-04-27T02:27:57.649Z,517.00
2023-04-27T02:28:57.672Z,517.00
2023-04-27T02:29:57.691Z,517.00
2023-04-27T02:30:57.690Z,518.00
2023-04-27T02:31:57.755Z,515.00
2023-04-27T02:32:57.785Z,513.00
2023-04-27T02:33:57.712Z,514.00
2023-04-27T02:34:57.712Z,519.00
2023-04-27T02:35:57.734Z,521.00
2023-04-27T02:36:57.704Z,523.00
2023-04-27T02:37:57.700Z,521.00
2023-04-27T02:38:57.703Z,520.00
2023-04-27T02:39:57.925Z,518.00
2023-04-27T02:40:57.689Z,520.00
2023-04-27T02:41:57.685Z,522.00
2023-04-27T02:42:57.684Z,522.00
2023-04-27T02:43:57.661Z,521.00
2023-04-27T02:44:57.659Z,521.00
2023-04-27T02:45:57.627Z,520.00
2023-04-27T02:46:57.694Z,519.00
2023-04-27T02:47:57.653Z,516.00
2023-04-27T02:48:57.599Z,517.00
2023-04-27T02:49:57.611Z,515.00
2023-04-27T02:50:57.583Z,518.00
2023-04-27T02:51:57.585Z,518.00
2023-04-27T02:52:57.584Z,520.00
2023-04-27T02:53:57.570Z,518.00
2023-04-27T02:54:57.566Z,517.00
2023-04-27T02:55:57.556Z,516.00
2023-04-27T02:56:57.593Z,516.00
2023-04-27T02:57:57.612Z,517.00
2023-04-27T02:58:57.634Z,513.00
2023-04-27T02:59:57.665Z,513.00
2023-04-27T03:00:57.859Z,510.00
2023-04-27T03:01:57.727Z,502.00
2023-04-27T03:02:57.879Z,490.00
2023-04-27T03:03:57.893Z,483.00
2023-04-27T03:04:57.751Z,476.00
2023-04-27T03:05:57.728Z,471.00
2023-04-27T03:06:57.757Z,467.00
2023-04-27T03:07:57.762Z,462.00
2023-04-27T03:08:57.800Z,458.00
2023-04-27T03:09:57.830Z,455.00
2023-04-27T03:10:57.874Z,451.00
2023-04-27T03:11:57.930Z,448.00
2023-04-27T03:12:57.992Z,443.00
2023-04-27T03:13:58.064Z,444.00
2023-04-27T03:14:58.138Z,445.00
2023-04-27T03:15:58.229Z,442.00
2023-04-27T03:16:58.281Z,443.00
2023-04-27T03:17:58.349Z,438.00
2023-04-27T03:18:58.384Z,435.00
2023-04-27T03:19:58.449Z,432.00
2023-04-27T03:20:58.488Z,431.00
2023-04-27T03:21:58.537Z,429.00
2023-04-27T03:22:58.607Z,425.00
2023-04-27T03:23:58.624Z,421.00
2023-04-27T03:24:58.650Z,417.00
2023-04-27T03:25:58.637Z,416.00
2023-04-27T03:26:58.637Z,415.00
2023-04-27T03:27:58.641Z,416.00
2023-04-27T03:28:58.638Z,413.00
2023-04-27T03:29:58.649Z,415.00
2023-04-27T03:30:58.676Z,417.00
2023-04-27T03:31:58.730Z,414.00
2023-04-27T03:32:58.763Z,415.00
2023-04-27T03:33:58.701Z,416.00
2023-04-27T03:34:58.716Z,412.00
2023-04-27T03:35:58.731Z,412.00
2023-04-27T03:36:58.752Z,409.00
2023-04-27T03:37:58.781Z,408.00
2023-04-27T03:38:58.824Z,406.00
2023-04-27T03:39:58.873Z,405.00
2023-04-27T03:40:58.874Z,403.00
2023-04-27T03:41:58.907Z,401.00
2023-04-27T03:42:59.236Z,400.00
2023-04-27T03:43:58.972Z,402.00
2023-04-27T03:44:59.016Z,405.00
2023-04-27T03:45:59.037Z,406.00
2023-04-27T03:46:59.012Z,405.00
2023-04-27T03:47:59.065Z,403.00
2023-04-27T03:48:59.017Z,401.00
2023-04-27T03:49:59.020Z,402.00
2023-04-27T03:50:59.020Z,402.00
2023-04-27T03:51:59.016Z,402.00
2023-04-27T03:52:59.021Z,403.00
2023-04-27T03:53:59.018Z,402.00
2023-04-27T03:54:59.026Z,400.00
2023-04-27T03:55:59.027Z,398.00
2023-04-27T03:56:59.029Z,397.00
2023-04-27T03:57:59.035Z,396.00
2023-04-27T03:58:59.031Z,398.00
2023-04-27T03:59:59.055Z,398.00
2023-04-27T04:00:59.098Z,401.00
2023-04-27T04:02:01.152Z,406.00
2023-04-27T04:02:59.401Z,409.00
2023-04-27T04:03:59.348Z,405.00
2023-04-27T04:04:59.377Z,405.00
2023-04-27T04:05:59.349Z,401.00
2023-04-27T04:06:59.407Z,402.00
2023-04-27T04:07:59.466Z,401.00
2023-04-27T04:08:59.533Z,401.00
2023-04-27T04:09:59.603Z,404.00
2023-04-27T04:10:59.672Z,405.00
2023-04-27T04:11:59.729Z,404.00
2023-04-27T04:12:59.796Z,403.00
2023-04-27T04:13:59.855Z,403.00
2023-04-27T04:14:59.936Z,404.00
2023-04-27T04:16:00.008Z,403.00
2023-04-27T04:16:59.999Z,403.00
2023-04-27T04:18:00.020Z,402.00
2023-04-27T04:19:00.013Z,403.00
2023-04-27T04:20:00.018Z,402.00
2023-04-27T04:21:00.014Z,402.00
2023-04-27T04:22:00.034Z,401.00
2023-04-27T04:23:00.036Z,400.00
2023-04-27T04:24:00.027Z,403.00
2023-04-27T04:25:00.033Z,404.00
2023-04-27T04:26:00.031Z,402.00
2023-04-27T04:27:00.102Z,400.00
2023-04-27T04:28:00.199Z,400.00
2023-04-27T04:29:00.246Z,401.00
2023-04-27T04:30:00.308Z,402.00
2023-04-27T04:31:00.396Z,401.00
2023-04-27T04:32:00.434Z,402.00
2023-04-27T04:33:00.562Z,403.00
2023-04-27T04:34:00.615Z,402.00
2023-04-27T04:35:00.659Z,398.00
2023-04-27T04:36:00.722Z,399.00
2023-04-27T04:37:00.765Z,400.00
2023-04-27T04:38:00.853Z,400.00
2023-04-27T04:39:00.906Z,400.00
2023-04-27T04:40:00.983Z,399.00
2023-04-27T04:41:01.095Z,398.00
2023-04-27T04:42:01.117Z,397.00
2023-04-27T04:43:01.182Z,395.00
2023-04-27T04:44:01.263Z,394.00
2023-04-27T04:45:01.343Z,394.00
2023-04-27T04:46:01.416Z,394.00
2023-04-27T04:47:01.521Z,396.00
2023-04-27T04:48:01.679Z,395.00
2023-04-27T04:49:01.610Z,395.00
2023-04-27T04:50:01.673Z,394.00
2023-04-27T04:51:01.724Z,398.00
2023-04-27T04:52:01.778Z,396.00
2023-04-27T04:53:01.813Z,398.00
2023-04-27T04:54:02.266Z,398.00
2023-04-27T04:55:01.956Z,396.00
2023-04-27T04:56:02.010Z,395.00
2023-04-27T04:57:02.061Z,395.00
2023-04-27T04:58:02.128Z,394.00
2023-04-27T04:59:02.158Z,395.00
2023-04-27T05:00:02.219Z,392.00
2023-04-27T05:01:02.205Z,391.00
2023-04-27T05:02:02.278Z,398.00
2023-04-27T05:03:02.446Z,397.00
2023-04-27T05:04:02.433Z,394.00
2023-04-27T05:05:02.309Z,393.00
2023-04-27T05:06:02.317Z,396.00
2023-04-27T05:07:02.332Z,396.00
2023-04-27T05:08:02.341Z,393.00
2023-04-27T05:09:02.349Z,390.00
2023-04-27T05:10:02.354Z,392.00
2023-04-27T05:11:02.364Z,396.00
2023-04-27T05:12:02.366Z,396.00
2023-04-27T05:13:02.381Z,398.00
2023-04-27T05:14:02.430Z,400.00
2023-04-27T05:15:02.529Z,399.00
2023-04-27T05:16:02.556Z,397.00
2023-04-27T05:17:02.559Z,399.00
2023-04-27T05:18:02.656Z,401.00
2023-04-27T05:19:02.639Z,402.00
2023-04-27T05:20:02.771Z,401.00
2023-04-27T05:21:02.696Z,401.00
2023-04-27T05:22:02.700Z,400.00
2023-04-27T05:23:02.711Z,398.00
2023-04-27T05:24:02.711Z,397.00
2023-04-27T05:25:02.723Z,397.00
2023-04-27T05:26:02.735Z,397.00
2023-04-27T05:27:02.716Z,400.00
2023-04-27T05:28:02.748Z,400.00
2023-04-27T05:29:02.732Z,401.00
2023-04-27T05:30:02.724Z,399.00
2023-04-27T05:31:02.768Z,400.00
2023-04-27T05:32:02.808Z,402.00
2023-04-27T05:33:02.967Z,434.00
2023-04-27T05:34:02.772Z,452.00
2023-04-27T05:35:02.796Z,466.00
2023-04-27T05:36:02.795Z,473.00
2023-04-27T05:37:02.735Z,521.00
2023-04-27T05:38:02.734Z,537.00
2023-04-27T05:39:02.740Z,576.00
2023-04-27T05:40:02.798Z,595.00
2023-04-27T05:41:02.841Z,639.00
2023-04-27T05:42:03.001Z,662.00
2023-04-27T05:43:03.258Z,660.00
2023-04-27T05:44:03.012Z,661.00
2023-04-27T05:45:03.055Z,668.00
2023-04-27T05:46:03.085Z,679.00
2023-04-27T05:47:03.054Z,705.00
2023-04-27T05:48:03.110Z,726.00
2023-04-27T05:49:03.194Z,752.00
2023-04-27T05:50:03.073Z,772.00
2023-04-27T05:51:03.126Z,777.00
2023-04-27T05:52:03.083Z,780.00
2023-04-27T05:53:03.095Z,564.00
2023-04-27T05:54:03.098Z,555.00
2023-04-27T05:55:04.095Z,510.00
2023-04-27T05:56:03.161Z,492.00
2023-04-27T05:57:03.133Z,485.00
2023-04-27T05:58:08.322Z,473.00
2023-04-27T05:59:04.186Z,474.00
2023-04-27T06:00:03.183Z,463.00
2023-04-27T06:01:03.218Z,467.00
2023-04-27T06:02:03.292Z,463.00
2023-04-27T06:03:03.378Z,459.00
2023-04-27T06:04:03.428Z,454.00
2023-04-27T06:05:03.325Z,450.00
2023-04-27T06:06:03.350Z,452.00
2023-04-27T06:07:03.330Z,479.00
2023-04-27T06:08:03.356Z,488.00
2023-04-27T06:09:03.370Z,487.00
2023-04-27T06:10:03.394Z,467.00
2023-04-27T06:11:03.452Z,464.00
2023-04-27T06:12:03.436Z,473.00
2023-04-27T06:13:03.465Z,482.00
2023-04-27T06:14:03.484Z,446.00
2023-04-27T06:15:03.505Z,459.00
2023-04-27T06:16:03.608Z,451.00
2023-04-27T06:17:03.548Z,438.00
2023-04-27T06:18:03.609Z,453.00
2023-04-27T06:19:03.593Z,466.00
2023-04-27T06:20:03.641Z,463.00
2023-04-27T06:21:03.651Z,455.00
2023-04-27T06:22:03.691Z,435.00
2023-04-27T06:23:03.723Z,442.00
2023-04-27T06:24:03.770Z,432.00
2023-04-27T06:25:03.859Z,435.00
2023-04-27T06:26:03.958Z,439.00
2023-04-27T06:27:04.037Z,437.00
2023-04-27T06:28:04.110Z,450.00
2023-04-27T06:29:04.214Z,430.00
2023-04-27T06:30:04.281Z,432.00
2023-04-27T06:31:04.386Z,441.00
2023-04-27T06:32:04.549Z,444.00
2023-04-27T06:33:04.660Z,441.00
2023-04-27T06:34:04.681Z,444.00
2023-04-27T06:35:04.821Z,455.00
2023-04-27T06:36:04.873Z,437.00
2023-04-27T06:37:04.943Z,459.00
2023-04-27T06:38:07.587Z,445.00
2023-04-27T06:39:05.054Z,448.00
2023-04-27T06:40:05.169Z,446.00
2023-04-27T06:41:05.112Z,454.00
2023-04-27T06:42:05.131Z,559.00
2023-04-27T06:43:05.155Z,583.00
2023-04-27T06:44:05.176Z,594.00
2023-04-27T06:45:05.202Z,595.00
2023-04-27T06:46:05.294Z,600.00
2023-04-27T06:47:05.224Z,684.00
2023-04-27T06:48:05.293Z,689.00
2023-04-27T06:49:05.260Z,696.00
2023-04-27T06:50:05.266Z,704.00
2023-04-27T06:51:05.314Z,743.00
2023-04-27T06:52:05.282Z,761.00
2023-04-27T06:53:05.284Z,767.00
2023-04-27T06:54:05.291Z,770.00
2023-04-27T06:55:05.301Z,770.00
2023-04-27T06:56:05.320Z,813.00
2023-04-27T06:57:05.313Z,821.00
2023-04-27T06:58:05.317Z,801.00
2023-04-27T06:59:05.316Z,816.00
2023-04-27T07:00:05.370Z,834.00
2023-04-27T07:01:05.404Z,818.00
2023-04-27T07:02:05.342Z,799.00
2023-04-27T07:03:05.465Z,850.00
2023-04-27T07:04:05.499Z,854.00
2023-04-27T07:05:05.395Z,852.00
2023-04-27T07:06:05.423Z,827.00
2023-04-27T07:07:05.381Z,782.00
2023-04-27T07:08:08.207Z,790.00
2023-04-27T07:09:13.178Z,795.00
2023-04-27T07:10:06.391Z,852.00
2023-04-27T07:11:05.424Z,816.00
2023-04-27T07:12:05.425Z,785.00
2023-04-27T07:13:07.356Z,792.00
2023-04-27T07:14:05.761Z,805.00
2023-04-27T07:15:05.435Z,827.00
2023-04-27T07:16:05.479Z,812.00
2023-04-27T07:17:05.446Z,813.00
2023-04-27T07:18:05.550Z,816.00
2023-04-27T07:19:05.453Z,832.00
2023-04-27T07:20:05.533Z,838.00
2023-04-27T07:21:05.484Z,840.00
2023-04-27T07:22:05.475Z,832.00
2023-04-27T07:23:05.487Z,825.00
2023-04-27T07:24:05.490Z,827.00
2023-04-27T07:25:06.201Z,829.00
2023-04-27T07:26:05.500Z,831.00
2023-04-27T07:27:05.512Z,836.00
2023-04-27T07:28:05.506Z,836.00
2023-04-27T07:29:14.462Z,835.00
2023-04-27T07:30:06.543Z,843.00
2023-04-27T07:31:05.525Z,834.00
2023-04-27T07:32:05.614Z,842.00
2023-04-27T07:33:05.553Z,847.00
2023-04-27T07:34:05.518Z,843.00
2023-04-27T07:35:05.554Z,837.00
2023-04-27T07:36:05.528Z,833.00
2023-04-27T07:37:05.521Z,835.00
2023-04-27T07:38:05.510Z,895.00
2023-04-27T07:39:05.499Z,883.00
2023-04-27T07:40:05.497Z,890.00
2023-04-27T07:41:05.489Z,863.00
2023-04-27T07:42:05.500Z,829.00
2023-04-27T07:43:05.513Z,741.00
2023-04-27T07:44:05.474Z,736.00
2023-04-27T07:45:05.463Z,723.00
2023-04-27T07:46:05.486Z,708.00
2023-04-27T07:47:05.463Z,693.00
2023-04-27T07:48:05.509Z,674.00
2023-04-27T07:49:05.466Z,663.00
2023-04-27T07:50:05.441Z,656.00
2023-04-27T07:51:05.504Z,649.00
2023-04-27T07:52:05.491Z,640.00
2023-04-27T07:53:05.438Z,632.00
2023-04-27T07:54:05.441Z,623.00
2023-04-27T07:55:05.435Z,613.00
2023-04-27T07:56:05.413Z,608.00
2023-04-27T07:57:05.419Z,604.00
2023-04-27T07:58:05.410Z,597.00
2023-04-27T07:59:05.398Z,591.00
2023-04-27T08:00:05.407Z,585.00
2023-04-27T08:01:05.446Z,581.00
2023-04-27T08:02:18.501Z,578.00
2023-04-27T08:03:06.595Z,567.00
2023-04-27T08:04:05.806Z,559.00
2023-04-27T08:05:05.580Z,555.00
2023-04-27T08:06:05.789Z,555.00
2023-04-27T08:07:06.029Z,548.00
2023-04-27T08:08:05.659Z,544.00
2023-04-27T08:09:05.448Z,543.00
2023-04-27T08:10:05.441Z,539.00
2023-04-27T08:11:05.353Z,534.00
2023-04-27T08:12:05.414Z,528.00
2023-04-27T08:13:05.334Z,525.00
2023-04-27T08:14:05.402Z,522.00
2023-04-27T08:15:05.568Z,520.00
2023-04-27T08:16:05.392Z,514.00
2023-04-27T08:17:05.396Z,511.00
2023-04-27T08:18:05.369Z,506.00
2023-04-27T08:19:05.311Z,501.00
2023-04-27T08:20:05.305Z,495.00
2023-04-27T08:21:05.312Z,477.00
2023-04-27T08:22:05.444Z,457.00
2023-04-27T08:23:05.289Z,455.00
2023-04-27T08:24:05.287Z,451.00
2023-04-27T08:25:05.294Z,451.00
2023-04-27T08:26:05.304Z,446.00
2023-04-27T08:27:05.324Z,442.00
2023-04-27T08:28:05.319Z,436.00
2023-04-27T08:29:15.284Z,436.00
2023-04-27T08:30:06.330Z,438.00
2023-04-27T08:31:05.385Z,432.00
2023-04-27T08:32:05.332Z,435.00
2023-04-27T08:33:05.411Z,440.00
2023-04-27T08:34:05.327Z,441.00
2023-04-27T08:35:05.331Z,444.00
2023-04-27T08:36:05.342Z,444.00
2023-04-27T08:37:05.330Z,451.00
2023-04-27T08:38:05.348Z,455.00
2023-04-27T08:39:05.355Z,454.00
2023-04-27T08:40:05.369Z,454.00
2023-04-27T08:41:18.314Z,453.00
2023-04-27T08:42:06.358Z,454.00
2023-04-27T08:43:05.355Z,461.00
2023-04-27T08:44:05.362Z,454.00
2023-04-27T08:45:05.382Z,453.00
2023-04-27T08:46:05.420Z,455.00
2023-04-27T08:47:05.361Z,460.00
2023-04-27T08:48:05.404Z,462.00
2023-04-27T08:49:05.360Z,464.00
2023-04-27T08:50:05.403Z,467.00
2023-04-27T08:51:05.377Z,462.00
2023-04-27T08:52:05.376Z,451.00
2023-04-27T08:53:05.368Z,444.00
2023-04-27T08:54:05.376Z,440.00
2023-04-27T08:55:05.394Z,434.00
2023-04-27T08:56:05.396Z,436.00
2023-04-27T08:57:05.383Z,433.00
2023-04-27T08:58:05.404Z,435.00
2023-04-27T08:59:05.381Z,432.00
2023-04-27T09:00:05.400Z,429.00
2023-04-27T09:01:05.387Z,428.00
2023-04-27T09:02:05.449Z,430.00
2023-04-27T09:03:05.527Z,433.00
2023-04-27T09:04:05.641Z,436.00
2023-04-27T09:05:05.597Z,438.00
2023-04-27T09:06:06.230Z,439.00
2023-04-27T09:07:05.384Z,438.00
2023-04-27T09:08:05.381Z,438.00
2023-04-27T09:09:05.364Z,437.00
2023-04-27T09:10:05.375Z,438.00
2023-04-27T09:11:05.384Z,437.00
2023-04-27T09:12:05.356Z,436.00
2023-04-27T09:13:05.382Z,440.00
2023-04-27T09:14:05.444Z,440.00
2023-04-27T09:15:05.513Z,438.00
2023-04-27T09:16:05.592Z,439.00
2023-04-27T09:17:05.632Z,442.00
2023-04-27T09:18:05.725Z,443.00
2023-04-27T09:19:05.752Z,444.00
2023-04-27T09:20:05.846Z,449.00
2023-04-27T09:21:05.849Z,451.00
2023-04-27T09:22:05.888Z,450.00
2023-04-27T09:23:05.996Z,450.00
2023-04-27T09:24:05.982Z,453.00
2023-04-27T09:25:06.033Z,440.00
2023-04-27T09:26:06.125Z,445.00
2023-04-27T09:27:06.127Z,450.00
2023-04-27T09:28:06.198Z,439.00
2023-04-27T09:29:06.244Z,441.00
2023-04-27T09:30:06.320Z,440.00
2023-04-27T09:31:06.374Z,442.00
2023-04-27T09:32:06.463Z,446.00
2023-04-27T09:33:06.538Z,451.00
2023-04-27T09:34:06.479Z,452.00
2023-04-27T09:35:06.460Z,455.00
2023-04-27T09:36:06.461Z,460.00
2023-04-27T09:37:06.447Z,467.00
2023-04-27T09:38:06.431Z,530.00
2023-04-27T09:39:06.430Z,518.00
2023-04-27T09:40:06.466Z,514.00
2023-04-27T09:41:06.426Z,516.00
2023-04-27T09:42:06.473Z,535.00
2023-04-27T09:43:06.408Z,551.00
2023-04-27T09:44:06.408Z,547.00
2023-04-27T09:45:06.395Z,543.00
2023-04-27T09:46:06.493Z,551.00
2023-04-27T09:47:06.395Z,552.00
2023-04-27T09:48:06.433Z,564.00
2023-04-27T09:49:06.386Z,585.00
2023-04-27T09:50:06.375Z,585.00
2023-04-27T09:51:06.374Z,585.00
2023-04-27T09:52:06.420Z,588.00
2023-04-27T09:53:06.351Z,588.00
2023-04-27T09:54:06.357Z,586.00
2023-04-27T09:55:06.348Z,604.00
2023-04-27T09:56:06.345Z,605.00
2023-04-27T09:57:06.335Z,617.00
2023-04-27T09:58:06.375Z,624.00
2023-04-27T09:59:06.309Z,635.00
2023-04-27T10:00:06.333Z,645.00
2023-04-27T10:01:06.362Z,644.00
2023-04-27T10:02:20.855Z,645.00
2023-04-27T10:03:07.354Z,648.00
2023-04-27T10:04:06.413Z,650.00
2023-04-27T10:05:06.299Z,653.00
2023-04-27T10:06:06.275Z,657.00
2023-04-27T10:07:06.260Z,664.00
2023-04-27T10:08:06.305Z,666.00
2023-04-27T10:09:06.308Z,671.00
2023-04-27T10:10:06.231Z,673.00
2023-04-27T10:11:06.249Z,678.00
2023-04-27T10:12:06.214Z,685.00
2023-04-27T10:13:06.214Z,691.00
2023-04-27T10:14:06.204Z,698.00
2023-04-27T10:15:06.207Z,700.00
2023-04-27T10:16:06.202Z,705.00
2023-04-27T10:17:06.260Z,710.00
2023-04-27T10:18:06.275Z,718.00
2023-04-27T10:19:06.156Z,726.00
2023-04-27T10:20:06.157Z,734.00
2023-04-27T10:21:06.158Z,744.00
2023-04-27T10:22:06.119Z,749.00
2023-04-27T10:23:06.098Z,753.00
2023-04-27T10:24:06.099Z,754.00
2023-04-27T10:25:06.088Z,757.00
2023-04-27T10:26:06.105Z,757.00
2023-04-27T10:27:06.076Z,760.00
2023-04-27T10:28:06.067Z,762.00
2023-04-27T10:29:06.055Z,767.00
2023-04-27T10:30:06.040Z,767.00
2023-04-27T10:31:06.082Z,771.00
2023-04-27T10:32:06.028Z,772.00
2023-04-27T10:33:06.049Z,772.00
2023-04-27T10:34:06.023Z,772.00
2023-04-27T10:35:05.981Z,769.00
2023-04-27T10:36:05.977Z,769.00
2023-04-27T10:37:05.970Z,771.00
2023-04-27T10:38:05.952Z,769.00
2023-04-27T10:39:05.940Z,767.00
2023-04-27T10:40:05.964Z,776.00
2023-04-27T10:41:05.922Z,778.00
2023-04-27T10:42:05.919Z,778.00
2023-04-27T10:43:05.922Z,773.00
2023-04-27T10:44:05.900Z,772.00
2023-04-27T10:45:05.897Z,774.00
2023-04-27T10:46:05.929Z,776.00
2023-04-27T10:47:05.873Z,773.00
2023-04-27T10:48:05.896Z,773.00
2023-04-27T10:49:05.881Z,770.00
2023-04-27T10:50:05.884Z,773.00
2023-04-27T10:51:05.840Z,777.00
2023-04-27T10:52:05.845Z,776.00
2023-04-27T10:53:05.825Z,771.00
2023-04-27T10:54:05.811Z,770.00
2023-04-27T10:55:05.805Z,768.00
2023-04-27T10:56:05.811Z,767.00
2023-04-27T10:57:05.799Z,766.00
2023-04-27T10:58:05.783Z,767.00
2023-04-27T10:59:05.824Z,768.00
2023-04-27T11:00:05.765Z,772.00
2023-04-27T11:01:05.779Z,781.00
2023-04-27T11:02:05.852Z,780.00
2023-04-27T11:03:05.910Z,778.00
2023-04-27T11:04:05.796Z,773.00
2023-04-27T11:05:05.814Z,772.00
2023-04-27T11:06:05.841Z,772.00
2023-04-27T11:07:05.802Z,767.00
2023-04-27T11:08:05.809Z,769.00
2023-04-27T11:09:05.820Z,773.00
2023-04-27T11:10:06.717Z,772.00
2023-04-27T11:11:05.827Z,775.00
2023-04-27T11:12:05.961Z,776.00
2023-04-27T11:13:05.780Z,779.00
2023-04-27T11:14:05.785Z,781.00
2023-04-27T11:15:05.772Z,780.00
2023-04-27T11:16:05.790Z,779.00
2023-04-27T11:17:05.774Z,773.00
2023-04-27T11:18:05.772Z,770.00
2023-04-27T11:19:05.724Z,765.00
2023-04-27T11:20:05.718Z,764.00
2023-04-27T11:21:05.722Z,764.00
2023-04-27T11:22:05.690Z,761.00
2023-04-27T11:23:05.684Z,763.00
2023-04-27T11:24:05.708Z,759.00
2023-04-27T11:25:05.655Z,756.00
2023-04-27T11:26:05.648Z,759.00
2023-04-27T11:27:05.631Z,768.00
2023-04-27T11:28:05.625Z,762.00
2023-04-27T11:29:05.712Z,747.00
2023-04-27T11:30:05.600Z,729.00
2023-04-27T11:31:05.608Z,703.00
2023-04-27T11:32:05.787Z,701.00
2023-04-27T11:33:05.739Z,694.00
2023-04-27T11:34:05.700Z,664.00
2023-04-27T11:35:05.737Z,647.00
2023-04-27T11:36:05.737Z,630.00
2023-04-27T11:37:14.692Z,623.00
2023-04-27T11:38:06.695Z,607.00
2023-04-27T11:39:05.745Z,593.00
2023-04-27T11:40:05.678Z,588.00
2023-04-27T11:41:05.662Z,576.00
2023-04-27T11:42:05.659Z,570.00
2023-04-27T11:43:05.650Z,561.00
2023-04-27T11:44:05.617Z,549.00
2023-04-27T11:45:05.658Z,540.00
2023-04-27T11:46:05.603Z,528.00
2023-04-27T11:47:05.624Z,520.00
2023-04-27T11:48:05.636Z,515.00
2023-04-27T11:49:05.597Z,510.00
2023-04-27T11:50:05.612Z,507.00
2023-04-27T11:51:05.598Z,500.00
2023-04-27T11:52:05.565Z,506.00
2023-04-27T11:53:05.568Z,511.00
2023-04-27T11:54:05.543Z,578.00
2023-04-27T11:55:05.540Z,583.00
2023-04-27T11:56:05.706Z,575.00
2023-04-27T11:57:05.539Z,568.00
2023-04-27T11:58:05.530Z,563.00
2023-04-27T11:59:05.573Z,565.00
2023-04-27T12:00:05.620Z,568.00
2023-04-27T12:01:05.714Z,572.00
2023-04-27T12:02:05.758Z,573.00
2023-04-27T12:03:05.809Z,575.00
2023-04-27T12:04:05.768Z,584.00
2023-04-27T12:05:05.740Z,584.00
2023-04-27T12:07:05.622Z,602.00
2023-04-27T12:08:05.618Z,605.00
2023-04-27T12:09:05.626Z,603.00
2023-04-27T12:10:05.588Z,609.00
2023-04-27T12:11:05.588Z,609.00
2023-04-27T12:12:05.564Z,606.00
2023-04-27T12:13:05.563Z,599.00
2023-04-27T12:14:05.557Z,591.00
2023-04-27T12:15:05.528Z,586.00
2023-04-27T12:16:05.532Z,580.00
2023-04-27T12:17:05.587Z,578.00
2023-04-27T12:18:05.519Z,576.00
2023-04-27T12:19:05.497Z,577.00
2023-04-27T12:20:05.476Z,578.00
2023-04-27T12:21:07.018Z,579.00
2023-04-27T12:22:05.474Z,577.00
2023-04-27T12:23:05.449Z,576.00
2023-04-27T12:24:05.416Z,572.00
2023-04-27T12:25:05.417Z,565.00
2023-04-27T12:26:05.420Z,560.00
2023-04-27T12:27:05.407Z,560.00
2023-04-27T12:28:05.382Z,560.00
2023-04-27T12:29:05.354Z,560.00
2023-04-27T12:30:05.349Z,560.00